Información del aeropuerto RCKH

Información de pista
Pista 09 Longitud 10335 ft Anchura 197 ft
Elevación 20 ft Umbral 525 ft Rumbo 92
Pista 27 Longitud 10335 ft Anchura 197 ft
Elevación 30 ft Umbral 1477 ft Rumbo 272
Frecuencias del aeropuerto
Tipo APP Nombre APP Frecuencia 121.1 MHZ
Tipo ATIS Nombre ATIS Frecuencia 127.8 MHZ
Tipo CLD Nombre CLNC DEL Frecuencia 121.8 MHZ
Tipo GND Nombre GND Frecuencia 121.9 MHZ
Tipo TWR Nombre TWR Frecuencia 118.7 MHZ
Radioayudas del aeropuerto
Tipo NDB Nombre Sk Frecuencia 330 KHZ
Información meteorológica del aeropuerto y NOTAM
ADDS - METARS form results

(0949 UTC 30 June 2022)
Data provider http://aviationweather.gov/metar/data/
 
METAR text: RCKH 300930Z 27008KT 9999 VCSH FEW015 BKN040 BKN160 31/24 Q1002 NOSIG RMK A2961
Conditions at: RCKH (KAOHSIUNG INTL , TW) observed 0930 UTC 30 June 2022
Temperature: 31.0°C (88°F)
Dewpoint: 24.0°C (75°F) [RH = 66%]
Pressure (altimeter): 29.59 inches Hg (1002.0 mb)
Winds: from the W (270 degrees) at 9 MPH (8 knots; 4.1 m/s)
Visibility: 6 or more miles (10+ km)
Ceiling: 4000 feet AGL
Clouds: few clouds at 1500 feet AGL
broken clouds at 4000 feet AGL
broken clouds at 16000 feet AGL
Weather: VCSH  (showers in vicinity)

METAR text: RCKH 300916Z 27008KT 9999 VCSH FEW015 BKN030 BKN160 31/25 Q1002 NOSIG RMK A2961
Conditions at: RCKH (KAOHSIUNG INTL , TW) observed 0916 UTC 30 June 2022
Temperature: 31.0°C (88°F)
Dewpoint: 25.0°C (77°F) [RH = 71%]
Pressure (altimeter): 29.59 inches Hg (1002.0 mb)
Winds: from the W (270 degrees) at 9 MPH (8 knots; 4.1 m/s)
Visibility: 6 or more miles (10+ km)
Ceiling: 3000 feet AGL
Clouds: few clouds at 1500 feet AGL
broken clouds at 3000 feet AGL
broken clouds at 16000 feet AGL
Weather: VCSH  (showers in vicinity)

METAR text: RCKH 300900Z 26009KT 240V300 9999 -RA FEW015 BKN030 BKN160 31/25 Q1002 NOSIG RMK A2961
Conditions at: RCKH (KAOHSIUNG INTL , TW) observed 0900 UTC 30 June 2022
Temperature: 31.0°C (88°F)
Dewpoint: 25.0°C (77°F) [RH = 71%]
Pressure (altimeter): 29.59 inches Hg (1002.0 mb)
Winds: from the W (260 degrees) at 10 MPH (9 knots; 4.6 m/s)
Visibility: 6 or more miles (10+ km)
Ceiling: 3000 feet AGL
Clouds: few clouds at 1500 feet AGL
broken clouds at 3000 feet AGL
broken clouds at 16000 feet AGL
Weather: -RA  (light rain)

METAR text: RCKH 300855Z 26009KT 240V300 9999 -RA FEW015 BKN050 BKN160 31/25 Q1002 NOSIG RMK A2961
Conditions at: RCKH (KAOHSIUNG INTL , TW) observed 0855 UTC 30 June 2022
Temperature: 31.0°C (88°F)
Dewpoint: 25.0°C (77°F) [RH = 71%]
Pressure (altimeter): 29.59 inches Hg (1002.0 mb)
Winds: from the W (260 degrees) at 10 MPH (9 knots; 4.6 m/s)
Visibility: 6 or more miles (10+ km)
Ceiling: 5000 feet AGL
Clouds: few clouds at 1500 feet AGL
broken clouds at 5000 feet AGL
broken clouds at 16000 feet AGL
Weather: -RA  (light rain)

METAR text: RCKH 300852Z 26009KT 9999 VCSH FEW015 BKN050 BKN160 32/25 Q1002 NOSIG RMK A2961
Conditions at: RCKH (KAOHSIUNG INTL , TW) observed 0852 UTC 30 June 2022
Temperature: 32.0°C (90°F)
Dewpoint: 25.0°C (77°F) [RH = 67%]
Pressure (altimeter): 29.59 inches Hg (1002.0 mb)
Winds: from the W (260 degrees) at 10 MPH (9 knots; 4.6 m/s)
Visibility: 6 or more miles (10+ km)
Ceiling: 5000 feet AGL
Clouds: few clouds at 1500 feet AGL
broken clouds at 5000 feet AGL
broken clouds at 16000 feet AGL
Weather: VCSH  (showers in vicinity)

Forecast for: COR
Text: TAF COR RCKH 300539Z 3006/0112 28010KT 9999 FEW015 SCT050
Forecast period: 0600 to 1000 UTC 30 June 2022
Forecast type: FROM: standard forecast or significant change
Winds: from the W (280 degrees) at 12 MPH (10 knots; 5.1 m/s)
Visibility: 6 or more miles (10+ km)
Ceiling: at least 12,000 feet AGL
Clouds: few clouds at 1500 feet AGL
scattered clouds at 5000 feet AGL
Weather: no significant weather forecast for this period
Text: TEMPO 3006/3010 22010KT 5000 SHRA FEW012 FEW015CB BKN020 BKN050
Forecast period: 0600 to 1000 UTC 30 June 2022
Forecast type: TEMPORARY: The following changes expected for less than half the time period
Winds: from the SW (220 degrees) at 12 MPH (10 knots; 5.1 m/s)
Visibility: 3 miles (5 km)
Ceiling: 2000 feet AGL
Clouds: few clouds at 1200 feet AGL
few clouds at 1500 feet AGL
broken clouds at 2000 feet AGL
Weather: SHRA  (rain showers)
Text: BECMG 3010/3012 06005KT
Forecast period: 1000 UTC 30 June 2022 to 0000 UTC 01 July 2022
Forecast type: BECOMING: Conditions expected to become as follows by 1200 UTC 30 June 2022
Winds: from the ENE (60 degrees) at 6 MPH (5 knots; 2.6 m/s)
Visibility: 6 or more miles (10+ km)
Ceiling: at least 12,000 feet AGL
Clouds: few clouds at 1500 feet AGL
scattered clouds at 5000 feet AGL
Weather: no significant weather forecast for this period
Text: TEMPO 3020/3024 FEW012 FEW015TCU SCT020 BKN032
Forecast period: 2000 UTC 30 June 2022 to 0000 UTC 01 July 2022
Forecast type: TEMPORARY: The following changes expected for less than half the time period
Visibility: missing
Ceiling: at least 12,000 feet AGL
Clouds: few clouds at 1200 feet AGL
few clouds at 1500 feet AGL
scattered clouds at 2000 feet AGL
Weather: no significant weather forecast for this period
Text: BECMG 0100/0102 22008KT
Forecast period: 0000 to 1200 UTC 01 July 2022
Forecast type: BECOMING: Conditions expected to become as follows by 0200 UTC 01 July 2022
Winds: from the SW (220 degrees) at 9 MPH (8 knots; 4.1 m/s)
Visibility: 6 or more miles (10+ km)
Ceiling: at least 12,000 feet AGL
Clouds: few clouds at 1500 feet AGL
scattered clouds at 5000 feet AGL
Weather: no significant weather forecast for this period
Text: TEMPO 0106/0110 17013KT
Forecast period: 0600 to 1000 UTC 01 July 2022
Forecast type: TEMPORARY: The following changes expected for less than half the time period
Winds: from the S (170 degrees) at 15 MPH (13 knots; 6.7 m/s)
Visibility: missing
Ceiling: unknown
Clouds: missing
Weather: no significant weather forecast for this period